createdAt,value
2018-07-12T00:00:49.670Z,18.31
2018-07-12T00:05:41.169Z,18.29
2018-07-12T00:10:32.669Z,18.25
2018-07-12T00:15:24.150Z,18.24
2018-07-12T00:20:15.643Z,18.21
2018-07-12T00:25:07.110Z,18.20
2018-07-12T00:29:58.639Z,18.15
2018-07-12T00:34:50.140Z,18.14
2018-07-12T00:39:41.641Z,18.12
2018-07-12T00:44:33.169Z,18.09
2018-07-12T00:49:25.639Z,18.09
2018-07-12T00:54:17.122Z,18.09
2018-07-12T00:59:08.575Z,18.04
2018-07-12T01:04:00.058Z,18.06
2018-07-12T01:08:51.592Z,18.06
2018-07-12T01:13:43.130Z,18.05
2018-07-12T01:18:34.667Z,17.96
2018-07-12T01:23:26.177Z,17.91
2018-07-12T01:28:17.737Z,17.85
2018-07-12T01:33:09.274Z,17.81
2018-07-12T01:38:00.787Z,17.78
2018-07-12T01:42:52.279Z,17.64
2018-07-12T01:47:43.789Z,17.49
2018-07-12T01:52:35.272Z,17.38
2018-07-12T01:57:26.771Z,17.36
2018-07-12T02:02:18.291Z,17.33
2018-07-12T02:07:09.822Z,17.39
2018-07-12T02:12:01.358Z,17.38
2018-07-12T02:16:52.875Z,17.32
2018-07-12T02:21:44.438Z,17.26
2018-07-12T02:26:35.913Z,17.17
2018-07-12T02:31:27.426Z,17.13
2018-07-12T02:36:19.037Z,17.04
2018-07-12T02:41:10.532Z,16.94
2018-07-12T02:46:01.992Z,16.92
2018-07-12T02:50:53.479Z,16.92
2018-07-12T02:55:44.962Z,16.85
2018-07-12T03:00:36.432Z,16.72
2018-07-12T03:05:27.975Z,16.63
2018-07-12T03:10:19.474Z,16.66
2018-07-12T03:15:10.991Z,16.67
2018-07-12T03:20:02.553Z,16.70
2018-07-12T03:24:53.994Z,16.64
2018-07-12T03:29:45.450Z,16.58
2018-07-12T03:34:36.962Z,16.59
2018-07-12T03:39:28.472Z,16.60
2018-07-12T03:44:19.958Z,16.66
2018-07-12T03:49:11.501Z,16.68
2018-07-12T03:54:03.024Z,16.63
2018-07-12T03:58:54.523Z,16.64
2018-07-12T04:03:46.173Z,16.61
2018-07-12T04:08:38.167Z,16.55
2018-07-12T04:13:29.753Z,16.56
2018-07-12T04:18:21.222Z,16.57
2018-07-12T04:23:12.746Z,16.62
2018-07-12T04:28:04.225Z,16.63
2018-07-12T04:32:55.791Z,16.64
2018-07-12T04:37:47.398Z,16.66
2018-07-12T04:42:38.843Z,16.69
2018-07-12T04:47:30.323Z,16.71
2018-07-12T04:52:21.852Z,16.77
2018-07-12T04:57:13.395Z,16.87
2018-07-12T05:02:04.888Z,16.94
2018-07-12T05:06:56.413Z,17.00
2018-07-12T05:11:48.114Z,17.06
2018-07-12T05:16:39.657Z,17.13
2018-07-12T05:21:31.161Z,17.22
2018-07-12T05:26:22.739Z,17.30
2018-07-12T05:31:14.232Z,17.39
2018-07-12T05:37:12.786Z,17.47
2018-07-12T05:42:05.865Z,17.59
2018-07-12T05:47:00.370Z,17.67
2018-07-12T05:51:53.402Z,17.72
2018-07-12T05:56:46.685Z,17.77
2018-07-12T06:01:57.405Z,17.82
2018-07-12T06:06:50.583Z,17.86
2018-07-12T06:11:43.651Z,17.92
2018-07-12T06:16:36.604Z,17.98
2018-07-12T06:21:29.713Z,18.04
2018-07-12T06:26:22.900Z,18.09
2018-07-12T06:31:15.885Z,18.14
2018-07-12T06:36:08.864Z,18.15
2018-07-12T06:41:02.092Z,18.14
2018-07-12T06:45:55.363Z,18.13
2018-07-12T06:50:48.469Z,18.15
2018-07-12T06:55:41.473Z,18.22
2018-07-12T07:00:34.566Z,18.28
2018-07-12T07:05:27.786Z,18.31
2018-07-12T07:10:20.861Z,18.33
2018-07-12T07:15:13.860Z,18.35
2018-07-12T07:20:07.001Z,18.38
2018-07-12T07:25:00.062Z,18.39
2018-07-12T07:29:53.257Z,18.41
2018-07-12T07:34:46.280Z,18.43
2018-07-12T07:39:39.343Z,18.46
2018-07-12T07:44:32.419Z,18.48
2018-07-12T07:49:25.428Z,18.50
2018-07-12T07:54:18.483Z,18.51
2018-07-12T07:59:11.500Z,18.51
2018-07-12T08:04:04.684Z,18.51
2018-07-12T08:08:57.688Z,18.51
2018-07-12T08:13:50.836Z,18.52
2018-07-12T08:18:43.997Z,18.53
2018-07-12T08:23:37.187Z,18.52
2018-07-12T08:28:30.192Z,18.52
2018-07-12T08:33:23.605Z,18.50
2018-07-12T08:38:16.677Z,18.50
2018-07-12T08:43:09.596Z,18.49
2018-07-12T08:48:02.403Z,18.52
2018-07-12T08:52:55.060Z,18.53
2018-07-12T08:57:47.629Z,18.54
2018-07-12T09:02:40.461Z,18.56
2018-07-12T09:07:33.156Z,18.59
2018-07-12T09:12:25.839Z,18.59
2018-07-12T09:17:18.726Z,18.61
2018-07-12T09:22:11.380Z,18.68
2018-07-12T09:27:03.990Z,18.78
2018-07-12T09:31:56.656Z,18.86
2018-07-12T09:36:49.303Z,18.89
2018-07-12T09:41:41.875Z,18.88
2018-07-12T09:46:34.472Z,18.87
2018-07-12T09:51:27.040Z,18.87
2018-07-12T09:56:19.853Z,18.89
2018-07-12T10:01:18.253Z,18.90
2018-07-12T10:06:16.713Z,18.93
2018-07-12T10:11:10.784Z,18.98
2018-07-12T10:16:04.496Z,19.00
2018-07-12T10:20:57.389Z,19.04
2018-07-12T10:25:49.979Z,19.07
2018-07-12T10:30:42.567Z,19.11
2018-07-12T10:35:35.143Z,19.17
2018-07-12T10:40:27.743Z,19.21
2018-07-12T10:45:20.329Z,19.25
2018-07-12T10:50:12.889Z,19.35
2018-07-12T10:55:05.778Z,19.44
2018-07-12T10:59:58.419Z,19.51
2018-07-12T11:04:51.008Z,19.58
2018-07-12T11:09:43.607Z,19.64
2018-07-12T11:14:36.191Z,19.69
2018-07-12T11:19:28.876Z,19.76
2018-07-12T11:24:21.449Z,19.84
2018-07-12T11:29:14.067Z,19.99
2018-07-12T11:34:06.618Z,20.11
2018-07-12T11:38:59.265Z,20.16
2018-07-12T11:43:51.894Z,20.15
2018-07-12T11:48:44.928Z,20.16
2018-07-12T11:53:39.808Z,20.22
2018-07-12T11:58:32.524Z,20.27
2018-07-12T12:03:25.572Z,20.33
2018-07-12T12:08:18.212Z,20.37
2018-07-12T12:13:10.788Z,20.34
2018-07-12T12:18:03.558Z,20.32
2018-07-12T12:23:02.268Z,20.30
2018-07-12T12:27:55.749Z,20.26
2018-07-12T12:32:48.512Z,20.25
2018-07-12T12:37:41.097Z,20.23
2018-07-12T12:42:36.628Z,20.26
2018-07-12T12:47:29.260Z,20.29
2018-07-12T12:52:21.945Z,20.34
2018-07-12T12:57:14.540Z,20.35
2018-07-12T13:02:07.089Z,20.38
2018-07-12T13:12:04.241Z,20.51
2018-07-12T13:16:56.907Z,20.61
2018-07-12T13:21:49.467Z,20.65
2018-07-12T13:26:42.116Z,20.68
2018-07-12T13:31:34.837Z,20.68
2018-07-12T13:36:27.447Z,20.68
2018-07-12T13:41:20.203Z,20.67
2018-07-12T13:46:12.812Z,20.65
2018-07-12T13:51:05.647Z,20.61
2018-07-12T13:55:58.291Z,20.59
2018-07-12T14:00:50.996Z,20.58
2018-07-12T14:05:43.669Z,20.56
2018-07-12T14:10:36.260Z,20.54
2018-07-12T14:15:28.881Z,20.53
2018-07-12T14:20:21.494Z,20.51
2018-07-12T14:25:14.236Z,20.48
2018-07-12T14:30:06.908Z,20.47
2018-07-12T14:34:59.673Z,20.46
2018-07-12T14:39:52.290Z,20.48
2018-07-12T14:44:45.006Z,20.54
2018-07-12T14:49:37.595Z,20.58
2018-07-12T14:54:30.268Z,20.62
2018-07-12T14:59:22.848Z,20.66
2018-07-12T15:04:15.569Z,20.69
2018-07-12T15:09:08.795Z,20.71
2018-07-12T15:14:01.384Z,20.73
2018-07-12T15:18:54.114Z,20.73
2018-07-12T15:23:46.750Z,20.77
2018-07-12T15:28:39.397Z,20.77
2018-07-12T15:33:32.025Z,20.78
2018-07-12T15:38:24.713Z,20.76
2018-07-12T15:43:17.331Z,20.75
2018-07-12T15:48:09.939Z,20.74
2018-07-12T15:53:02.625Z,20.74
2018-07-12T15:57:55.225Z,20.74
2018-07-12T16:02:47.880Z,20.73
2018-07-12T16:07:40.491Z,20.70
2018-07-12T16:12:33.136Z,20.66
2018-07-12T16:17:25.761Z,20.60
2018-07-12T16:22:18.343Z,20.54
2018-07-12T16:27:11.071Z,20.49
2018-07-12T16:32:03.735Z,20.45
2018-07-12T16:36:56.344Z,20.38
2018-07-12T16:41:49.174Z,20.37
2018-07-12T16:46:41.812Z,20.32
2018-07-12T16:51:34.528Z,20.29
2018-07-12T16:56:27.176Z,20.25
2018-07-12T17:01:19.857Z,20.24
2018-07-12T17:06:12.489Z,20.20
2018-07-12T17:11:05.301Z,20.16
2018-07-12T17:15:58.050Z,20.11
2018-07-12T17:20:50.615Z,20.10
2018-07-12T17:25:43.206Z,20.08
2018-07-12T17:30:35.868Z,20.03
2018-07-12T17:35:28.471Z,19.99
2018-07-12T17:40:21.067Z,19.98
2018-07-12T17:45:13.700Z,19.96
2018-07-12T17:50:06.287Z,19.93
2018-07-12T17:54:58.890Z,19.92
2018-07-12T17:59:51.523Z,19.89
2018-07-12T18:04:44.176Z,19.89
2018-07-12T18:09:36.766Z,19.89
2018-07-12T18:14:29.471Z,19.88
2018-07-12T18:19:21.994Z,19.85
2018-07-12T18:24:14.782Z,19.87
2018-07-12T18:29:07.388Z,19.87
2018-07-12T18:33:59.985Z,19.88
2018-07-12T18:38:52.607Z,19.89
2018-07-12T18:43:45.175Z,19.88
2018-07-12T18:48:37.777Z,19.87
2018-07-12T18:53:30.324Z,19.84
2018-07-12T18:58:22.928Z,19.82
2018-07-12T19:03:15.539Z,19.83
2018-07-12T19:08:08.177Z,19.79
2018-07-12T19:13:00.920Z,19.74
2018-07-12T19:17:53.828Z,19.71
2018-07-12T19:22:46.395Z,19.70
2018-07-12T19:27:38.943Z,19.69
2018-07-12T19:32:31.506Z,19.68
2018-07-12T19:37:24.246Z,19.67
2018-07-12T19:42:16.799Z,19.66
2018-07-12T19:47:09.415Z,19.65
2018-07-12T19:52:01.949Z,19.64
2018-07-12T19:56:54.893Z,19.62
2018-07-12T20:01:48.594Z,19.61
2018-07-12T20:06:41.233Z,19.60
2018-07-12T20:11:33.834Z,19.59
2018-07-12T20:16:26.429Z,19.61
2018-07-12T20:21:19.111Z,19.64
2018-07-12T20:26:11.740Z,19.69
2018-07-12T20:31:04.333Z,19.70
2018-07-12T20:35:56.837Z,19.65
2018-07-12T20:40:49.438Z,19.60
2018-07-12T20:45:42.027Z,19.55
2018-07-12T20:50:34.647Z,19.55
2018-07-12T20:55:27.189Z,19.54
2018-07-12T21:00:19.796Z,19.50
2018-07-12T21:05:12.511Z,19.45
2018-07-12T21:10:05.436Z,19.40
2018-07-12T21:14:58.052Z,19.33
2018-07-12T21:19:50.608Z,19.31
2018-07-12T21:24:43.261Z,19.30
2018-07-12T21:29:35.829Z,19.31
2018-07-12T21:34:28.417Z,19.31
2018-07-12T21:39:21.213Z,19.31
2018-07-12T21:44:13.857Z,19.27
2018-07-12T21:49:06.469Z,19.24
2018-07-12T21:53:59.093Z,19.19
2018-07-12T21:58:51.777Z,19.17
2018-07-12T22:03:44.382Z,19.18
2018-07-12T22:08:37.001Z,19.21
2018-07-12T22:13:30.381Z,19.21
2018-07-12T22:18:22.946Z,19.21
2018-07-12T22:23:15.603Z,19.21
2018-07-12T22:28:08.229Z,19.19
2018-07-12T22:33:01.672Z,19.18
2018-07-12T22:37:54.455Z,19.17
2018-07-12T22:42:47.070Z,19.15
2018-07-12T22:47:39.684Z,19.15
2018-07-12T22:52:32.320Z,19.14
2018-07-12T22:57:24.946Z,19.11
2018-07-12T23:02:17.536Z,19.12
2018-07-12T23:07:10.483Z,19.12
2018-07-12T23:12:03.564Z,19.10
2018-07-12T23:16:56.186Z,19.07
2018-07-12T23:21:48.797Z,19.06
2018-07-12T23:26:41.452Z,19.07
2018-07-12T23:31:34.078Z,19.07
2018-07-12T23:36:26.668Z,19.06
2018-07-12T23:41:19.269Z,19.06
2018-07-12T23:46:11.927Z,19.06
2018-07-12T23:51:04.528Z,19.04
2018-07-12T23:55:57.157Z,19.02
